Time;durP1;ratioP1;P1;durP2;ratioP2;P2;SDS_P1;SDS_P2;PMS_P1;PMS_P2;Temp;Humidity;BMP_temperature;BMP_pressure;BME280_temperature;BME280_humidity;BME280_pressure;Samples;Min_cycle;Max_cycle;Signal;HPM_P1;HPM_P2
2021/06/22 00:38:22;;;;;;;8.30;5.60;;;17.50;97.30;;;;;;4926967;29;20500;-94
2021/06/22 00:40:50;;;;;;;11.73;6.70;;;17.40;97.30;;;;;;4916372;29;20511;-94
2021/06/22 00:43:22;;;;;;;14.10;7.00;;;17.40;97.30;;;;;;4915795;29;20432;-95
2021/06/22 00:45:50;;;;;;;11.17;6.93;;;17.40;97.30;;;;;;4921629;29;20475;-93
2021/06/22 00:48:23;;;;;;;11.07;7.03;;;17.30;97.30;;;;;;4934789;29;20476;-92
2021/06/22 00:50:52;;;;;;;9.70;6.03;;;17.30;97.30;;;;;;4913785;29;20449;-94
2021/06/22 00:53:21;;;;;;;11.37;6.77;;;17.30;97.30;;;;;;4911433;29;20505;-93
2021/06/22 00:55:57;;;;;;;10.47;6.33;;;17.30;97.30;;;;;;4914523;29;20409;-94
2021/06/22 00:58:28;;;;;;;11.93;7.33;;;17.30;97.30;;;;;;5011051;23;20492;-88
2021/06/22 01:07:28;;;;;;;11.53;6.60;;;17.30;97.30;;;;;;4807016;29;20418;-89
2021/06/22 01:09:56;;;;;;;11.53;6.90;;;17.30;97.30;;;;;;4770200;30;20944;-88
2021/06/22 01:23:06;;;;;;;8.80;6.00;;;17.20;97.30;;;;;;4770311;30;20383;-88
2021/06/22 01:25:33;;;;;;;7.80;5.33;;;17.10;97.30;;;;;;4790679;29;20469;-88
2021/06/22 01:28:10;;;;;;;8.30;5.13;;;17.00;97.30;;;;;;4806098;29;21141;-88
2021/06/22 01:30:38;;;;;;;8.97;5.17;;;17.00;97.30;;;;;;4882415;29;20447;-88
2021/06/22 01:33:11;;;;;;;8.90;4.70;;;16.90;97.30;;;;;;4868076;29;20442;-88
2021/06/22 01:35:37;;;;;;;7.80;5.33;;;16.90;97.30;;;;;;4902725;29;20471;-89
2021/06/22 01:38:22;;;;;;;6.67;4.77;;;17.00;97.30;;;;;;4902422;29;20445;-88
2021/06/22 01:40:50;;;;;;;7.47;4.83;;;17.00;97.30;;;;;;4902433;29;20224;-88
2021/06/22 01:43:18;;;;;;;7.77;5.30;;;17.00;97.30;;;;;;4899942;29;21994;-88
2021/06/22 01:45:43;;;;;;;10.73;3.90;;;17.00;97.30;;;;;;4884718;29;21006;-87
2021/06/22 01:48:09;;;;;;;7.40;5.47;;;16.90;97.30;;;;;;4922782;23;20571;-88
2021/06/22 01:50:38;;;;;;;4.90;4.20;;;16.90;97.30;;;;;;4922367;29;20179;-88
2021/06/22 01:53:03;;;;;;;6.50;3.50;;;16.80;97.30;;;;;;4922875;29;20636;-88
2021/06/22 01:55:35;;;;;;;4.87;3.40;;;16.80;97.30;;;;;;4922718;29;20419;-87
2021/06/22 01:58:03;;;;;;;3.77;2.83;;;16.80;97.30;;;;;;4922319;29;20671;-87
2021/06/22 02:00:28;;;;;;;4.70;2.60;;;16.80;97.30;;;;;;4938482;29;20818;-89
2021/06/22 02:02:54;;;;;;;3.23;2.53;;;16.80;97.30;;;;;;4920859;29;20522;-87
2021/06/22 02:05:23;;;;;;;3.80;3.10;;;16.80;97.30;;;;;;4920428;29;20180;-89
2021/06/22 02:07:58;;;;;;;3.50;3.17;;;16.80;97.30;;;;;;4920258;29;20193;-88
2021/06/22 02:10:32;;;;;;;2.80;2.20;;;16.80;97.30;;;;;;4901266;29;20420;-89
2021/06/22 02:12:57;;;;;;;4.40;3.00;;;16.80;97.30;;;;;;4901084;29;20972;-89
2021/06/22 02:15:28;;;;;;;4.07;2.73;;;16.80;97.30;;;;;;4900657;29;20421;-89
2021/06/22 02:17:53;;;;;;;3.63;2.80;;;16.80;97.30;;;;;;4901068;29;20235;-87
2021/06/22 02:20:24;;;;;;;5.90;2.70;;;16.80;97.30;;;;;;4901269;29;20979;-88
2021/06/22 02:22:58;;;;;;;3.83;2.63;;;16.80;97.30;;;;;;4901057;29;20304;-88
2021/06/22 02:25:38;;;;;;;3.60;3.07;;;16.80;97.30;;;;;;4901560;29;20487;-89
2021/06/22 02:28:08;;;;;;;3.40;2.93;;;16.80;97.30;;;;;;4901554;29;20441;-88
2021/06/22 02:30:37;;;;;;;3.33;3.00;;;16.80;97.30;;;;;;4918680;29;20415;-89
2021/06/22 02:33:14;;;;;;;3.63;2.87;;;16.80;97.30;;;;;;4901399;29;20938;-89
2021/06/22 02:35:56;;;;;;;7.17;2.80;;;16.80;97.30;;;;;;4901697;29;20430;-88
2021/06/22 02:38:24;;;;;;;3.57;2.57;;;16.90;97.30;;;;;;4917132;29;20530;-89
2021/06/22 02:41:28;;;;;;;3.80;2.73;;;16.90;97.30;;;;;;4920121;29;20974;-89
2021/06/22 02:44:03;;;;;;;5.27;2.90;;;16.90;97.30;;;;;;4916955;29;20439;-88
2021/06/22 02:46:29;;;;;;;3.30;2.83;;;16.90;97.30;;;;;;4921274;29;20442;-88
2021/06/22 02:48:54;;;;;;;3.73;2.93;;;16.90;97.30;;;;;;4920871;29;20982;-88
2021/06/22 02:51:20;;;;;;;6.90;2.70;;;16.90;97.30;;;;;;4921227;29;20192;-89
2021/06/22 02:53:46;;;;;;;3.40;2.60;;;16.90;97.30;;;;;;4921141;29;20180;-88
2021/06/22 02:56:11;;;;;;;4.23;3.00;;;16.90;97.30;;;;;;4921307;29;20227;-87
2021/06/22 02:59:10;;;;;;;3.13;2.73;;;16.90;97.30;;;;;;4921564;29;20200;-89
2021/06/22 03:01:48;;;;;;;;;;;;;;;;;;;;;
2021/06/22 03:04:14;;;;;;;3.80;2.47;;;16.80;97.30;;;;;;4937183;29;20408;-89
2021/06/22 03:06:48;;;;;;;6.83;2.37;;;16.80;97.30;;;;;;4936350;29;20578;-88
2021/06/22 03:12:28;;;;;;;3.77;2.77;;;16.80;97.30;;;;;;4936300;29;20399;-89
2021/06/22 03:15:02;;;;;;;3.63;2.83;;;16.80;97.30;;;;;;4918624;29;20419;-89
2021/06/22 03:17:28;;;;;;;3.30;2.27;;;16.90;97.30;;;;;;4917122;29;20428;-88
2021/06/22 03:20:09;;;;;;;4.27;2.80;;;16.90;97.30;;;;;;4899951;29;21300;-89
2021/06/22 03:22:38;;;;;;;3.93;3.13;;;16.90;97.30;;;;;;4899987;29;20287;-88
2021/06/22 03:25:23;;;;;;;3.83;3.00;;;16.90;97.30;;;;;;4899881;29;21151;-88
2021/06/22 03:28:43;;;;;;;4.20;3.20;;;16.80;97.30;;;;;;4900272;29;20455;-87
2021/06/22 03:31:09;;;;;;;5.20;3.00;;;16.70;97.30;;;;;;4895832;29;20912;-88
2021/06/22 03:33:48;;;;;;;4.53;2.93;;;16.70;97.30;;;;;;4900564;29;20431;-88
2021/06/22 03:43:36;;;;;;;3.30;3.00;;;16.70;97.30;;;;;;4904442;29;20429;-88
2021/06/22 03:46:10;;;;;;;4.00;3.20;;;16.70;97.30;;;;;;4900362;29;20432;-89
2021/06/22 03:55:34;;;;;;;3.60;3.37;;;16.70;97.30;;;;;;4918156;29;20380;-88
2021/06/22 03:58:04;;;;;;;4.97;3.60;;;16.70;97.30;;;;;;4901897;29;20956;-88
2021/06/22 04:00:33;;;;;;;3.93;2.90;;;16.70;97.30;;;;;;4900636;29;20495;-88
2021/06/22 04:10:45;;;;;;;8.73;4.00;;;16.80;97.30;;;;;;4858300;29;20402;-88
2021/06/22 04:17:43;;;;;;;6.10;4.70;;;16.70;97.30;;;;;;4818892;29;20442;-87
2021/06/22 04:40:42;;;;;;;8.90;4.63;;;16.60;97.30;;;;;;4845098;29;20527;-89
2021/06/22 04:43:12;;;;;;;7.63;4.80;;;16.50;97.30;;;;;;4825168;29;20432;-89
2021/06/22 04:56:25;;;;;;;;;;;;;;;;;;;;;
2021/06/22 05:16:49;;;;;;;;;;;;;;;;;;;;;
2021/06/22 05:26:48;;;;;;;13.00;6.77;;;16.40;97.30;;;;;;4771485;30;20459;-90
2021/06/22 05:29:14;;;;;;;10.67;7.30;;;16.40;97.30;;;;;;4909729;23;20540;-67
2021/06/22 05:31:39;;;;;;;10.27;7.43;;;16.40;97.30;;;;;;4916711;29;20460;-68
2021/06/22 05:34:05;;;;;;;10.97;6.80;;;16.40;97.30;;;;;;4916230;29;20184;-68
2021/06/22 05:36:30;;;;;;;11.83;6.97;;;16.40;97.30;;;;;;4898659;29;20176;-68
2021/06/22 05:38:56;;;;;;;11.53;7.20;;;16.40;97.30;;;;;;4899047;29;20184;-68
2021/06/22 05:41:22;;;;;;;11.07;8.20;;;16.40;97.30;;;;;;4919841;29;20227;-68
2021/06/22 05:43:48;;;;;;;10.20;7.40;;;16.40;97.30;;;;;;4934700;29;20895;-67
2021/06/22 05:46:13;;;;;;;10.83;6.60;;;16.40;97.30;;;;;;4917763;29;20184;-68
2021/06/22 05:48:39;;;;;;;9.10;6.10;;;16.50;97.30;;;;;;4933973;29;20168;-68
2021/06/22 05:51:04;;;;;;;8.27;6.43;;;16.50;97.30;;;;;;4907855;29;20259;-68
2021/06/22 05:53:30;;;;;;;10.20;6.30;;;16.50;97.30;;;;;;4898901;29;20236;-68
2021/06/22 05:55:55;;;;;;;7.57;6.00;;;16.50;97.30;;;;;;4915899;29;20467;-68
2021/06/22 05:58:21;;;;;;;7.60;6.00;;;16.50;97.30;;;;;;4915706;29;20268;-67
2021/06/22 06:00:47;;;;;;;6.97;5.50;;;16.50;97.30;;;;;;4916055;29;20240;-67
2021/06/22 06:03:13;;;;;;;6.13;4.67;;;16.50;97.30;;;;;;4900909;29;20600;-67
2021/06/22 06:05:39;;;;;;;8.07;5.37;;;16.50;97.30;;;;;;4906782;29;20443;-67
2021/06/22 06:08:05;;;;;;;5.83;4.40;;;16.50;97.30;;;;;;4898265;29;20485;-67
2021/06/22 06:10:32;;;;;;;5.80;4.20;;;16.50;97.30;;;;;;4915342;29;20220;-67
2021/06/22 06:12:57;;;;;;;6.53;4.93;;;16.50;97.30;;;;;;4898291;29;20183;-67
2021/06/22 06:15:23;;;;;;;6.10;4.67;;;16.50;97.30;;;;;;4898555;29;20433;-67
2021/06/22 06:17:48;;;;;;;6.60;5.00;;;16.50;97.30;;;;;;4901282;29;20188;-67
2021/06/22 06:20:14;;;;;;;7.47;5.40;;;16.50;97.30;;;;;;4932650;29;20277;-67
2021/06/22 06:22:42;;;;;;;6.60;5.63;;;16.50;97.30;;;;;;4904448;29;20255;-67
2021/06/22 06:25:09;;;;;;;7.50;5.70;;;16.60;97.30;;;;;;4898218;29;20432;-67
2021/06/22 06:30:07;;;;;;;7.93;5.40;;;16.60;97.30;;;;;;4915508;29;20516;-67
2021/06/22 06:32:33;;;;;;;8.90;5.73;;;16.60;97.30;;;;;;4915593;29;20452;-67
2021/06/22 06:34:58;;;;;;;6.83;5.73;;;16.60;97.30;;;;;;4897167;29;20535;-67
2021/06/22 06:37:24;;;;;;;7.77;6.20;;;16.60;97.30;;;;;;4914860;29;20196;-68
2021/06/22 06:39:53;;;;;;;13.30;6.30;;;16.70;97.30;;;;;;4897471;29;20215;-67
2021/06/22 06:42:18;;;;;;;7.17;6.10;;;16.60;97.30;;;;;;4915316;29;20204;-67
2021/06/22 06:44:44;;;;;;;7.60;5.93;;;16.70;97.30;;;;;;4897219;29;20421;-67
2021/06/22 06:47:09;;;;;;;9.60;6.03;;;16.70;97.30;;;;;;4897263;29;20608;-68
2021/06/22 06:49:35;;;;;;;7.50;6.20;;;16.70;97.30;;;;;;4897194;29;20181;-68
2021/06/22 06:52:03;;;;;;;7.10;5.60;;;16.70;97.30;;;;;;4898251;29;20204;-68
2021/06/22 06:54:28;;;;;;;7.10;6.03;;;16.80;97.30;;;;;;4910255;29;20435;-69
2021/06/22 06:56:54;;;;;;;6.20;5.00;;;16.90;97.30;;;;;;4916492;29;20518;-68
2021/06/22 06:59:19;;;;;;;6.45;5.35;;;16.90;97.30;;;;;;4902246;29;20185;-68
2021/06/22 07:01:45;;;;;;;6.47;5.23;;;17.00;97.30;;;;;;4899577;29;20283;-68
2021/06/22 07:04:10;;;;;;;6.40;5.33;;;17.10;97.30;;;;;;4913348;29;20531;-68
2021/06/22 07:06:36;;;;;;;4.07;3.70;;;17.20;97.30;;;;;;4913593;29;20179;-68
2021/06/22 07:09:02;;;;;;;8.37;5.50;;;17.20;97.30;;;;;;4900590;29;20718;-68
2021/06/22 07:11:28;;;;;;;6.57;5.57;;;17.30;97.30;;;;;;4915634;29;20706;-68
2021/06/22 07:13:54;;;;;;;5.70;5.13;;;17.40;97.30;;;;;;4931110;29;20463;-68
2021/06/22 07:16:19;;;;;;;5.80;5.00;;;17.40;97.30;;;;;;4932867;29;20801;-68
2021/06/22 07:18:45;;;;;;;6.50;4.80;;;17.40;97.30;;;;;;4933129;29;20415;-68
2021/06/22 07:21:12;;;;;;;6.47;5.27;;;17.50;97.30;;;;;;4915907;29;20341;-68
2021/06/22 07:23:37;;;;;;;6.37;5.43;;;17.50;97.30;;;;;;4924867;29;20728;-67
2021/06/22 07:26:03;;;;;;;5.87;5.30;;;17.40;97.30;;;;;;4914497;29;20504;-68
2021/06/22 07:28:29;;;;;;;7.30;6.00;;;17.40;97.30;;;;;;4896665;29;20315;-68
2021/06/22 07:30:54;;;;;;;6.30;5.03;;;17.40;97.30;;;;;;4914334;29;20551;-68
2021/06/22 07:33:20;;;;;;;9.80;4.80;;;17.30;97.30;;;;;;4914265;29;20454;-68
2021/06/22 07:35:46;;;;;;;4.43;3.90;;;17.30;97.30;;;;;;4898752;29;20262;-68
2021/06/22 07:38:11;;;;;;;4.13;3.80;;;17.20;97.30;;;;;;4896015;29;20271;-68
2021/06/22 07:40:38;;;;;;;5.43;3.40;;;17.20;97.30;;;;;;4898395;29;20720;-68
2021/06/22 07:43:04;;;;;;;5.17;3.80;;;17.20;97.30;;;;;;4914488;29;20181;-69
2021/06/22 07:45:32;;;;;;;8.83;3.80;;;17.20;97.30;;;;;;4897276;29;20432;-68
2021/06/22 07:47:57;;;;;;;6.03;4.30;;;17.20;97.30;;;;;;4913972;29;20499;-68
2021/06/22 07:50:24;;;;;;;5.00;3.60;;;17.20;97.30;;;;;;4929769;29;20518;-68
2021/06/22 07:52:50;;;;;;;6.90;4.77;;;17.20;97.30;;;;;;4932599;29;20184;-68
2021/06/22 07:55:15;;;;;;;6.17;5.00;;;17.20;97.30;;;;;;4932683;29;20424;-68
2021/06/22 07:57:42;;;;;;;6.90;5.03;;;17.20;97.30;;;;;;4918097;29;20437;-68
2021/06/22 08:00:14;;;;;;;8.17;5.70;;;17.20;97.30;;;;;;4896727;29;20211;-68
2021/06/22 08:02:40;;;;;;;5.70;4.40;;;17.20;97.30;;;;;;4913701;29;20475;-68
2021/06/22 08:05:06;;;;;;;4.93;4.20;;;17.20;97.30;;;;;;4881971;29;20434;-68
2021/06/22 08:07:31;;;;;;;4.50;3.90;;;17.20;97.30;;;;;;4907248;29;20207;-68
2021/06/22 08:09:56;;;;;;;5.83;4.70;;;17.20;97.30;;;;;;4904570;29;20429;-68
2021/06/22 08:12:22;;;;;;;5.13;4.20;;;17.20;97.30;;;;;;4914696;29;20210;-68
2021/06/22 08:14:48;;;;;;;5.40;4.47;;;17.30;97.30;;;;;;4917319;29;20188;-68
2021/06/22 08:17:13;;;;;;;4.77;3.47;;;17.30;97.30;;;;;;4925096;29;20331;-68
2021/06/22 08:19:39;;;;;;;6.17;5.40;;;17.30;97.30;;;;;;4919217;29;20211;-68
2021/06/22 08:22:04;;;;;;;6.03;5.07;;;17.30;97.30;;;;;;4919438;29;20206;-68
2021/06/22 08:24:30;;;;;;;6.90;5.50;;;17.20;97.30;;;;;;4936323;29;20231;-68
2021/06/22 08:26:55;;;;;;;7.10;5.20;;;17.20;97.30;;;;;;4918762;29;20227;-68
2021/06/22 08:29:21;;;;;;;8.33;6.30;;;17.10;97.30;;;;;;4898669;29;20691;-68
2021/06/22 08:31:47;;;;;;;5.70;4.83;;;17.10;97.30;;;;;;4899082;29;20200;-68
2021/06/22 08:34:12;;;;;;;8.07;6.40;;;17.10;97.30;;;;;;4916050;29;20205;-68
2021/06/22 08:36:38;;;;;;;7.93;6.30;;;17.10;97.30;;;;;;4916283;29;20212;-69
2021/06/22 08:39:04;;;;;;;10.47;7.27;;;17.10;97.30;;;;;;4917006;29;20216;-68
2021/06/22 08:41:30;;;;;;;8.93;7.10;;;17.10;97.30;;;;;;4897987;29;20240;-68
2021/06/22 08:43:57;;;;;;;9.10;7.67;;;17.00;97.30;;;;;;4896733;29;20929;-68
2021/06/22 08:46:23;;;;;;;15.53;8.50;;;17.00;97.30;;;;;;4899158;29;20463;-66
2021/06/22 08:48:49;;;;;;;9.67;6.80;;;17.00;97.30;;;;;;4916461;29;20429;-69
2021/06/22 08:51:15;;;;;;;8.93;6.40;;;17.00;97.30;;;;;;4898383;29;20204;-66
2021/06/22 08:53:42;;;;;;;10.03;7.27;;;17.00;97.30;;;;;;4898102;29;20464;-67
2021/06/22 08:56:07;;;;;;;9.03;5.70;;;17.00;97.30;;;;;;4898534;29;20251;-69
2021/06/22 08:58:33;;;;;;;19.00;9.67;;;17.00;97.30;;;;;;4917227;29;20468;-67
2021/06/22 09:00:59;;;;;;;14.57;9.70;;;17.10;97.30;;;;;;4913359;29;20590;-66
2021/06/22 09:03:26;;;;;;;14.00;10.17;;;17.10;97.30;;;;;;4899003;29;20185;-69
2021/06/22 09:05:59;;;;;;;18.47;10.23;;;17.10;97.30;;;;;;4899362;29;20696;-68
2021/06/22 09:08:30;;;;;;;21.30;12.37;;;17.00;97.30;;;;;;4915488;29;20423;-69
2021/06/22 09:11:14;;;;;;;19.70;12.73;;;17.00;97.30;;;;;;4912973;29;20552;-68
2021/06/22 09:13:42;;;;;;;20.47;14.80;;;17.00;97.30;;;;;;4894130;29;20440;-68
2021/06/22 09:16:15;;;;;;;26.40;16.77;;;16.90;97.30;;;;;;4898747;29;20491;-68
2021/06/22 09:18:44;;;;;;;22.33;14.80;;;16.90;97.30;;;;;;4916093;29;20873;-69
2021/06/22 09:21:19;;;;;;;14.77;10.37;;;16.90;97.30;;;;;;4898136;29;20480;-67
2021/06/22 09:23:46;;;;;;;19.70;11.57;;;16.90;97.30;;;;;;4897927;29;20424;-68
2021/06/22 09:26:17;;;;;;;18.60;13.10;;;16.80;97.30;;;;;;4916513;29;20975;-69
2021/06/22 09:28:47;;;;;;;20.20;13.17;;;16.80;97.30;;;;;;4916062;29;20468;-69
2021/06/22 09:31:19;;;;;;;18.00;13.23;;;16.90;97.30;;;;;;4898091;29;20896;-69
2021/06/22 09:33:53;;;;;;;15.23;10.50;;;17.00;97.30;;;;;;4916057;29;20404;-68
2021/06/22 09:36:21;;;;;;;14.53;9.90;;;17.10;97.30;;;;;;4899253;29;20436;-68
2021/06/22 09:38:52;;;;;;;14.37;9.97;;;17.20;97.30;;;;;;4916470;29;20835;-69
2021/06/22 09:41:21;;;;;;;12.80;9.17;;;17.30;97.30;;;;;;4916322;29;20492;-69
2021/06/22 09:44:00;;;;;;;13.67;9.10;;;17.30;97.30;;;;;;4915900;29;20456;-68
2021/06/22 09:46:30;;;;;;;12.60;9.10;;;17.40;97.30;;;;;;4896871;29;20394;-68
2021/06/22 09:48:57;;;;;;;9.77;7.00;;;17.40;97.30;;;;;;4899125;29;20801;-69
2021/06/22 09:51:31;;;;;;;10.83;7.60;;;17.40;97.30;;;;;;4915953;29;20429;-69
2021/06/22 09:54:12;;;;;;;9.90;6.80;;;17.50;97.30;;;;;;4916080;29;20419;-68
2021/06/22 09:56:48;;;;;;;8.30;6.17;;;17.60;97.30;;;;;;4915559;29;20471;-68
2021/06/22 09:59:14;;;;;;;9.80;6.63;;;17.60;97.30;;;;;;4915556;29;20520;-68
2021/06/22 10:01:39;;;;;;;11.20;6.90;;;17.70;97.30;;;;;;4915750;29;20547;-68
2021/06/22 10:04:32;;;;;;;9.60;6.80;;;17.70;97.30;;;;;;4915954;29;20679;-68
2021/06/22 10:06:59;;;;;;;7.93;6.03;;;17.80;97.30;;;;;;4915001;29;20191;-68
2021/06/22 10:09:30;;;;;;;8.43;6.10;;;17.80;97.30;;;;;;4915862;29;20417;-68
2021/06/22 10:11:56;;;;;;;8.00;5.90;;;17.90;97.30;;;;;;4915608;29;20448;-66
2021/06/22 10:14:25;;;;;;;7.20;5.30;;;18.00;97.30;;;;;;4915996;29;20457;-68
2021/06/22 10:16:51;;;;;;;7.90;6.00;;;18.00;97.30;;;;;;4898691;29;20920;-68
2021/06/22 10:19:17;;;;;;;11.77;6.00;;;18.10;97.30;;;;;;4900083;29;20449;-68
2021/06/22 10:21:42;;;;;;;7.47;5.50;;;18.10;97.30;;;;;;4917244;29;20212;-68
2021/06/22 10:24:08;;;;;;;6.00;5.17;;;18.20;97.30;;;;;;4923627;29;20181;-68
2021/06/22 10:26:34;;;;;;;6.87;5.33;;;18.30;97.30;;;;;;4915467;29;20219;-68
2021/06/22 10:29:01;;;;;;;5.13;4.80;;;18.40;97.30;;;;;;4898451;29;20216;-68
2021/06/22 10:31:28;;;;;;;7.07;4.80;;;18.40;97.30;;;;;;4913272;29;20250;-68
2021/06/22 10:33:54;;;;;;;5.07;4.10;;;18.50;97.30;;;;;;4910908;29;20464;-68
2021/06/22 10:36:48;;;;;;;5.73;4.40;;;18.50;97.30;;;;;;4914760;29;20425;-68
2021/06/22 10:39:20;;;;;;;4.60;3.93;;;18.40;97.30;;;;;;4913342;29;20284;-68
2021/06/22 10:41:46;;;;;;;6.50;4.90;;;18.40;97.30;;;;;;4915141;29;21085;-68
2021/06/22 10:44:24;;;;;;;7.43;4.17;;;18.40;97.30;;;;;;4915437;29;20413;-68
2021/06/22 10:47:19;;;;;;;8.93;4.07;;;18.30;97.30;;;;;;4897854;29;20436;-67
2021/06/22 10:50:09;;;;;;;4.20;3.93;;;18.40;97.30;;;;;;4915438;29;20393;-68
2021/06/22 10:52:45;;;;;;;5.30;4.00;;;18.40;97.30;;;;;;4897464;29;20429;-68
2021/06/22 10:55:21;;;;;;;4.33;3.80;;;18.50;97.30;;;;;;4898101;29;20419;-67
2021/06/22 10:58:05;;;;;;;7.20;5.10;;;18.50;97.30;;;;;;4897198;29;20519;-68
2021/06/22 11:00:50;;;;;;;6.80;6.30;;;18.60;97.30;;;;;;4897172;29;20916;-68
2021/06/22 11:03:27;;;;;;;7.20;6.07;;;18.60;97.30;;;;;;4897098;29;20496;-68
2021/06/22 11:06:02;;;;;;;8.00;6.80;;;18.60;97.30;;;;;;4907269;29;20435;-67
2021/06/22 11:08:28;;;;;;;8.07;7.67;;;18.50;97.30;;;;;;4929414;29;20562;-68
2021/06/22 11:10:54;;;;;;;7.70;7.00;;;18.50;97.30;;;;;;4931933;29;20484;-67
2021/06/22 11:13:51;;;;;;;9.73;7.57;;;18.50;97.30;;;;;;4913419;29;21011;-68
2021/06/22 11:16:16;;;;;;;10.30;7.80;;;18.50;97.30;;;;;;4911985;29;20607;-67
2021/06/22 11:18:54;;;;;;;7.60;7.07;;;18.50;97.30;;;;;;4912336;29;20895;-67
2021/06/22 11:21:23;;;;;;;7.30;6.87;;;18.40;97.30;;;;;;4909885;29;20315;-67
2021/06/22 11:24:02;;;;;;;6.20;5.77;;;18.40;97.30;;;;;;4912769;29;20423;-68
2021/06/22 11:26:30;;;;;;;8.10;6.10;;;18.40;97.30;;;;;;4894779;29;20453;-68
2021/06/22 11:29:01;;;;;;;7.50;6.53;;;18.40;97.30;;;;;;4904030;29;20486;-67
2021/06/22 11:31:32;;;;;;;10.53;6.73;;;18.40;97.30;;;;;;4907776;29;20459;-68
2021/06/22 11:34:13;;;;;;;8.23;6.93;;;18.40;97.30;;;;;;4895640;29;20425;-68
2021/06/22 11:36:47;;;;;;;8.33;7.10;;;18.40;97.30;;;;;;4912393;29;20489;-68
2021/06/22 11:39:20;;;;;;;7.23;6.47;;;18.40;97.30;;;;;;4907348;29;20438;-68
2021/06/22 11:42:25;;;;;;;10.60;7.00;;;18.40;97.30;;;;;;4917253;29;20495;-67
2021/06/22 11:45:17;;;;;;;7.93;6.23;;;18.50;97.30;;;;;;4844210;29;20727;-68
2021/06/22 11:47:46;;;;;;;6.70;5.40;;;18.60;97.30;;;;;;4854737;29;20435;-68
2021/06/22 11:50:11;;;;;;;7.23;5.40;;;18.60;97.30;;;;;;4896796;29;20435;-68
2021/06/22 11:52:45;;;;;;;8.33;6.60;;;18.60;97.30;;;;;;4932688;29;20427;-68
2021/06/22 11:55:15;;;;;;;9.43;6.10;;;18.50;97.30;;;;;;4923048;29;20213;-68
2021/06/22 11:57:47;;;;;;;10.37;7.40;;;18.50;97.30;;;;;;4913145;29;20951;-68
2021/06/22 12:00:15;;;;;;;8.70;6.90;;;18.50;97.30;;;;;;4896852;29;20460;-68
2021/06/22 12:02:48;;;;;;;11.17;7.47;;;18.50;97.30;;;;;;4911644;29;20471;-68
2021/06/22 12:05:15;;;;;;;7.33;6.33;;;18.60;97.30;;;;;;4901746;29;20427;-68
2021/06/22 12:07:55;;;;;;;7.00;5.80;;;18.60;97.30;;;;;;4920698;29;20428;-68
2021/06/22 12:10:22;;;;;;;8.73;6.80;;;18.60;97.30;;;;;;4896156;29;20428;-68
2021/06/22 12:12:50;;;;;;;6.87;5.77;;;18.60;97.30;;;;;;4913679;29;20419;-68
2021/06/22 12:15:30;;;;;;;6.60;5.73;;;18.60;97.30;;;;;;4897671;29;20713;-68
2021/06/22 12:17:56;;;;;;;10.20;6.20;;;18.60;97.30;;;;;;4897305;29;20451;-68
2021/06/22 12:20:26;;;;;;;8.27;5.90;;;18.60;97.30;;;;;;4912042;29;20836;-68
2021/06/22 12:23:13;;;;;;;6.90;5.87;;;18.70;97.30;;;;;;4932409;29;20176;-68
2021/06/22 12:25:42;;;;;;;5.57;4.50;;;18.80;97.30;;;;;;4926047;29;20967;-68
2021/06/22 12:28:09;;;;;;;8.33;5.97;;;18.90;97.30;;;;;;4912333;29;20539;-68
2021/06/22 12:30:56;;;;;;;8.20;5.90;;;18.90;97.30;;;;;;4929924;29;20462;-67
2021/06/22 12:33:25;;;;;;;8.00;5.73;;;18.90;97.30;;;;;;4894455;29;20440;-67
2021/06/22 12:35:52;;;;;;;6.50;5.50;;;19.00;97.30;;;;;;4915616;29;20945;-67
2021/06/22 12:38:19;;;;;;;10.83;5.80;;;19.00;97.30;;;;;;4932258;29;20862;-68
2021/06/22 12:40:54;;;;;;;6.63;5.43;;;19.00;97.30;;;;;;4900919;29;20876;-67
2021/06/22 12:43:20;;;;;;;8.07;6.20;;;19.10;97.30;;;;;;4880302;29;20860;-68
2021/06/22 12:45:59;;;;;;;6.53;5.80;;;19.10;97.30;;;;;;4894296;29;20955;-68
2021/06/22 12:48:25;;;;;;;6.00;5.20;;;19.20;97.30;;;;;;4913230;29;20780;-67
2021/06/22 12:50:52;;;;;;;6.03;5.43;;;19.20;97.30;;;;;;4896113;29;20444;-68
2021/06/22 12:53:18;;;;;;;7.30;5.10;;;19.20;97.30;;;;;;4897148;29;20896;-68
2021/06/22 12:55:47;;;;;;;7.20;5.67;;;19.20;97.30;;;;;;4895964;29;20531;-68
2021/06/22 12:58:14;;;;;;;7.70;6.07;;;19.20;97.30;;;;;;4896156;29;20180;-67
2021/06/22 13:00:45;;;;;;;6.77;5.60;;;19.30;97.30;;;;;;4916648;29;20464;-67
2021/06/22 13:03:21;;;;;;;7.30;5.63;;;19.30;97.30;;;;;;4913847;29;20523;-67
2021/06/22 13:05:54;;;;;;;5.43;5.00;;;19.30;97.30;;;;;;4897708;29;20417;-67
2021/06/22 13:08:24;;;;;;;7.43;6.03;;;19.30;97.30;;;;;;4893804;29;20850;-67
2021/06/22 13:10:54;;;;;;;5.87;5.27;;;19.30;97.30;;;;;;4918135;29;21065;-68
2021/06/22 13:13:30;;;;;;;7.63;4.73;;;19.30;97.30;;;;;;4935523;29;20420;-67
2021/06/22 13:16:13;;;;;;;7.80;5.00;;;19.30;97.30;;;;;;4903866;29;20856;-67
2021/06/22 13:19:17;;;;;;;6.00;5.20;;;19.30;97.30;;;;;;4918372;29;20478;-68
2021/06/22 13:21:46;;;;;;;6.40;5.10;;;19.30;97.30;;;;;;4857386;29;20485;-67
2021/06/22 13:24:13;;;;;;;8.23;4.67;;;19.30;97.30;;;;;;4857300;29;20436;-67
2021/06/22 13:26:41;;;;;;;5.00;4.50;;;19.30;97.30;;;;;;4895765;29;20911;-67
2021/06/22 13:29:06;;;;;;;9.40;4.70;;;19.40;97.30;;;;;;4925686;29;20464;-68
2021/06/22 13:31:33;;;;;;;5.37;4.80;;;19.40;97.30;;;;;;4915902;29;20443;-68
2021/06/22 13:34:09;;;;;;;4.93;4.50;;;19.50;97.30;;;;;;4916264;29;20712;-67
2021/06/22 13:36:37;;;;;;;6.77;4.63;;;19.50;97.30;;;;;;4915314;29;20507;-67
2021/06/22 13:39:11;;;;;;;5.93;3.93;;;19.70;97.30;;;;;;4898215;29;20440;-67
2021/06/22 13:41:45;;;;;;;5.37;3.87;;;19.80;97.30;;;;;;4915362;29;20987;-68
2021/06/22 13:44:11;;;;;;;7.60;3.33;;;19.90;97.30;;;;;;4915074;29;20409;-67
2021/06/22 13:46:37;;;;;;;3.20;3.07;;;20.00;97.30;;;;;;4914942;29;20473;-68
2021/06/22 13:49:03;;;;;;;3.00;2.83;;;20.10;97.30;;;;;;4921026;29;20194;-67
2021/06/22 13:51:33;;;;;;;3.60;3.07;;;20.20;96.90;;;;;;4923855;29;20444;-67
2021/06/22 13:54:08;;;;;;;4.57;3.40;;;20.20;95.80;;;;;;4900844;29;20623;-67
2021/06/22 13:56:34;;;;;;;3.40;3.03;;;20.20;96.50;;;;;;4915502;29;20416;-67
2021/06/22 13:59:00;;;;;;;3.53;3.33;;;20.20;96.80;;;;;;4917270;29;20502;-67
2021/06/22 14:01:26;;;;;;;4.77;3.27;;;20.20;96.40;;;;;;4918971;29;20843;-67
2021/06/22 14:03:56;;;;;;;3.90;3.40;;;20.20;97.20;;;;;;4924968;29;20247;-67
2021/06/22 14:06:22;;;;;;;4.50;3.60;;;20.20;97.30;;;;;;4909020;29;20176;-67
2021/06/22 14:08:47;;;;;;;3.30;3.13;;;20.20;96.90;;;;;;4902863;29;20417;-67
2021/06/22 14:11:13;;;;;;;4.83;3.40;;;20.10;96.20;;;;;;4931947;29;20223;-67
2021/06/22 14:13:38;;;;;;;6.20;4.10;;;20.10;97.30;;;;;;4923834;29;20195;-68
2021/06/22 14:16:04;;;;;;;3.43;3.30;;;20.10;97.30;;;;;;4898687;29;20274;-67
2021/06/22 14:18:30;;;;;;;4.07;3.60;;;20.10;97.30;;;;;;4915583;29;20669;-67
2021/06/22 14:20:56;;;;;;;4.13;3.80;;;20.10;97.30;;;;;;4898013;29;20761;-67
2021/06/22 14:23:22;;;;;;;8.00;3.13;;;20.10;97.30;;;;;;4914595;29;20463;-67
2021/06/22 14:25:49;;;;;;;8.13;4.10;;;20.20;97.30;;;;;;4898092;29;20420;-67
2021/06/22 14:28:21;;;;;;;4.77;3.67;;;20.20;97.30;;;;;;4915466;29;20471;-67
2021/06/22 14:30:49;;;;;;;5.77;4.10;;;20.20;97.30;;;;;;4916863;29;20954;-66
2021/06/22 14:33:19;;;;;;;7.80;3.97;;;20.20;97.30;;;;;;4924370;29;20416;-66
2021/06/22 14:35:45;;;;;;;4.37;3.53;;;20.10;97.20;;;;;;4897741;29;20452;-66
2021/06/22 14:38:11;;;;;;;3.97;3.27;;;20.10;97.30;;;;;;4931350;29;20436;-66
2021/06/22 14:40:37;;;;;;;3.40;2.90;;;20.10;97.30;;;;;;4900442;29;20483;-66
2021/06/22 14:43:03;;;;;;;7.67;3.17;;;20.10;97.20;;;;;;4897885;29;20420;-66
2021/06/22 14:45:29;;;;;;;4.27;3.63;;;20.10;97.30;;;;;;4897854;29;20593;-66
2021/06/22 14:47:57;;;;;;;4.00;3.23;;;20.20;97.30;;;;;;4915071;29;20425;-66
2021/06/22 14:50:23;;;;;;;4.40;3.50;;;20.20;97.30;;;;;;4907301;29;20184;-66
2021/06/22 14:52:49;;;;;;;6.30;4.10;;;20.30;96.80;;;;;;4919794;29;20437;-66
2021/06/22 14:58:18;;;;;;;3.30;3.13;;;20.30;97.30;;;;;;4882151;29;20428;-66
2021/06/22 15:00:46;;;;;;;3.10;3.00;;;20.40;97.30;;;;;;4897468;29;20465;-66
2021/06/22 15:03:13;;;;;;;3.10;2.90;;;20.40;97.30;;;;;;4897219;29;20425;-66
2021/06/22 15:05:39;;;;;;;3.43;2.73;;;20.40;97.30;;;;;;4914338;29;20424;-66
2021/06/22 15:08:05;;;;;;;7.03;3.20;;;20.40;97.00;;;;;;4915230;29;20959;-66
2021/06/22 15:10:32;;;;;;;3.47;3.00;;;20.40;97.30;;;;;;4917403;29;20510;-66
2021/06/22 15:12:58;;;;;;;5.60;2.93;;;20.40;97.00;;;;;;4914319;29;20491;-67
2021/06/22 15:15:25;;;;;;;5.03;3.03;;;20.40;97.30;;;;;;4897089;29;20519;-67
2021/06/22 15:17:51;;;;;;;2.90;2.70;;;20.40;96.90;;;;;;4915238;29;20443;-67
2021/06/22 15:20:19;;;;;;;4.57;2.83;;;20.40;97.10;;;;;;4908473;29;20460;-66
2021/06/22 15:22:46;;;;;;;2.70;2.50;;;20.40;95.90;;;;;;4896294;29;20409;-66
2021/06/22 15:25:12;;;;;;;3.70;2.83;;;20.40;96.60;;;;;;4896589;29;20432;-66
2021/06/22 15:27:38;;;;;;;4.70;3.20;;;20.50;95.70;;;;;;4896464;29;20468;-67